Happy Camp, California
Current Conditions -  °F | °C
As of 7:03 AM on Wednesday 22 Oct 2014 (Local Time) from KCEC Reporting Station
Overcast Overcast  
Wind Chill: 62°   Ceiling: 4300
Heat Index: 62°   Visibility: 10mi
Dew Point: 52°   Wind: 20mph
Humidity: 70%   Direction: 160°SSE
Pressure: 29.95"   Gusts: 30mph
Location:  41.79°N, 123.38°W
Report Text: KCEC 221403Z AUTO 16017G26KT 10SM SCT026 BKN043 OVC055 17/11 A2995 RMK AO2 T01670111
Loading
Personal Weather Stations






























Interactive Weather Map New forecast layout! Learn more

10-Day Weather Forecast

Advertisements
Track Severe Weather on mobile